createdAt,value
2019-02-21T00:02:18.730Z,18.57
2019-02-21T00:04:44.957Z,18.53
2019-02-21T00:07:11.179Z,20.83
2019-02-21T00:09:37.712Z,18.43
2019-02-21T00:12:04.447Z,21.67
2019-02-21T00:14:30.687Z,21.70
2019-02-21T00:16:56.915Z,18.30
2019-02-21T00:19:23.164Z,20.20
2019-02-21T00:21:49.668Z,20.80
2019-02-21T00:24:16.310Z,19.17
2019-02-21T00:26:44.263Z,22.73
2019-02-21T00:29:10.589Z,21.67
2019-02-21T00:31:36.799Z,21.17
2019-02-21T00:34:03.362Z,18.20
2019-02-21T00:36:29.599Z,22.37
2019-02-21T00:38:55.847Z,23.47
2019-02-21T00:41:22.058Z,20.83
2019-02-21T00:43:48.316Z,25.03
2019-02-21T00:46:14.548Z,19.40
2019-02-21T00:48:40.759Z,19.90
2019-02-21T00:51:07.012Z,22.00
2019-02-21T00:53:33.228Z,20.70
2019-02-21T00:55:59.499Z,20.90
2019-02-21T00:58:25.726Z,21.17
2019-02-21T01:00:51.966Z,21.50
2019-02-21T01:03:18.280Z,20.63
2019-02-21T01:05:44.520Z,25.13
2019-02-21T01:08:11.159Z,21.43
2019-02-21T01:10:37.504Z,19.70
2019-02-21T01:13:04.127Z,18.57
2019-02-21T01:15:30.719Z,20.47
2019-02-21T01:17:57.121Z,19.27
2019-02-21T01:20:23.307Z,21.40
2019-02-21T01:22:49.523Z,20.57
2019-02-21T01:25:15.778Z,21.10
2019-02-21T01:27:41.993Z,24.97
2019-02-21T01:30:08.720Z,22.83
2019-02-21T01:32:35.241Z,21.50
2019-02-21T01:35:01.497Z,18.40
2019-02-21T01:37:27.711Z,18.97
2019-02-21T01:39:53.962Z,20.87
2019-02-21T01:42:20.526Z,21.73
2019-02-21T01:44:46.805Z,25.00
2019-02-21T01:47:13.398Z,24.80
2019-02-21T01:49:39.648Z,20.40
2019-02-21T01:52:05.871Z,20.30
2019-02-21T01:54:32.135Z,21.53
2019-02-21T01:56:58.373Z,23.17
2019-02-21T01:59:24.611Z,20.80
2019-02-21T02:01:50.835Z,20.83
2019-02-21T02:04:17.071Z,21.93
2019-02-21T02:06:43.284Z,21.63
2019-02-21T02:09:11.735Z,20.17
2019-02-21T02:11:38.007Z,25.87
2019-02-21T02:14:04.233Z,18.50
2019-02-21T02:16:30.816Z,18.73
2019-02-21T02:18:57.077Z,21.10
2019-02-21T02:21:23.294Z,23.33
2019-02-21T02:23:49.539Z,21.33
2019-02-21T02:26:15.763Z,19.87
2019-02-21T02:28:42.007Z,24.53
2019-02-21T02:31:21.572Z,22.00
2019-02-21T02:33:36.354Z,23.83
2019-02-21T02:36:02.579Z,22.57
2019-02-21T02:38:28.853Z,21.87
2019-02-21T02:40:55.078Z,23.73
2019-02-21T02:43:21.312Z,26.30
2019-02-21T02:45:47.541Z,25.80
2019-02-21T02:48:13.781Z,28.87
2019-02-21T02:50:40.077Z,25.27
2019-02-21T02:53:06.303Z,24.33
2019-02-21T02:55:32.520Z,27.60
2019-02-21T02:57:58.744Z,26.23
2019-02-21T03:00:24.979Z,26.17
2019-02-21T03:02:51.511Z,25.07
2019-02-21T03:05:17.768Z,30.50
2019-02-21T03:07:44.152Z,24.83
2019-02-21T03:10:11.303Z,26.07
2019-02-21T03:12:37.528Z,27.00
2019-02-21T03:15:05.192Z,27.90
2019-02-21T03:17:31.420Z,26.10
2019-02-21T03:19:57.830Z,22.60
2019-02-21T03:22:24.130Z,25.00
2019-02-21T03:24:50.407Z,28.60
2019-02-21T03:27:16.679Z,25.23
2019-02-21T03:29:42.885Z,24.17
2019-02-21T03:32:09.148Z,25.93
2019-02-21T03:34:35.395Z,25.60
2019-02-21T03:37:01.641Z,27.23
2019-02-21T03:39:27.832Z,26.23
2019-02-21T03:41:54.083Z,26.50
2019-02-21T03:44:20.315Z,26.57
2019-02-21T03:46:46.555Z,28.30
2019-02-21T03:49:13.152Z,25.30
2019-02-21T03:51:39.677Z,25.00
2019-02-21T03:54:06.534Z,30.90
2019-02-21T03:56:32.980Z,25.60
2019-02-21T03:58:59.220Z,25.77
2019-02-21T04:01:25.866Z,24.53
2019-02-21T04:03:52.087Z,23.73
2019-02-21T04:06:18.538Z,24.93
2019-02-21T04:08:44.795Z,27.73
2019-02-21T04:11:11.353Z,25.83
2019-02-21T04:13:37.618Z,23.90
2019-02-21T04:16:04.051Z,28.17
2019-02-21T04:18:30.304Z,24.63
2019-02-21T04:20:56.525Z,23.07
2019-02-21T04:23:22.764Z,24.60
2019-02-21T04:25:49.000Z,25.87
2019-02-21T04:28:15.246Z,25.13
2019-02-21T04:30:41.452Z,25.30
2019-02-21T04:33:07.678Z,28.87
2019-02-21T04:35:33.903Z,31.47
2019-02-21T04:38:00.155Z,28.47
2019-02-21T04:40:26.373Z,26.20
2019-02-21T04:42:52.592Z,24.90
2019-02-21T04:45:19.168Z,26.57
2019-02-21T04:48:05.295Z,27.97
2019-02-21T04:50:31.509Z,27.93
2019-02-21T04:52:57.734Z,28.30
2019-02-21T04:55:24.000Z,26.63
2019-02-21T04:57:50.223Z,24.27
2019-02-21T05:00:16.594Z,25.30
2019-02-21T05:02:42.723Z,28.17
2019-02-21T05:05:08.974Z,27.33
2019-02-21T05:07:35.211Z,24.07
2019-02-21T05:10:01.458Z,25.20
2019-02-21T05:12:27.841Z,31.10
2019-02-21T05:14:54.068Z,25.27
2019-02-21T05:17:20.420Z,28.83
2019-02-21T05:19:46.654Z,23.87
2019-02-21T05:22:15.623Z,26.23
2019-02-21T05:24:41.857Z,23.00
2019-02-21T05:27:10.008Z,28.63
2019-02-21T05:29:36.219Z,28.80
2019-02-21T05:32:12.972Z,27.43
2019-02-21T05:34:41.109Z,26.43
2019-02-21T05:37:18.470Z,33.27
2019-02-21T05:39:46.775Z,25.93
2019-02-21T05:42:30.229Z,24.33
2019-02-21T05:45:13.367Z,28.73
2019-02-21T05:47:41.500Z,26.40
2019-02-21T05:50:12.398Z,28.20
2019-02-21T05:52:40.538Z,25.80
2019-02-21T05:55:08.731Z,29.50
2019-02-21T05:57:42.963Z,25.70
2019-02-21T06:00:29.307Z,27.30
2019-02-21T06:03:12.483Z,32.20
2019-02-21T06:05:46.803Z,29.03
2019-02-21T06:08:21.027Z,30.10
2019-02-21T06:11:05.796Z,24.63
2019-02-21T06:13:36.717Z,24.47
2019-02-21T06:16:13.785Z,25.20
2019-02-21T06:18:41.915Z,28.53
2019-02-21T06:21:10.163Z,28.33
2019-02-21T06:23:49.220Z,28.30
2019-02-21T06:26:20.258Z,25.90
2019-02-21T06:28:48.671Z,25.80
2019-02-21T06:31:14.910Z,28.47
2019-02-21T06:33:41.133Z,23.47
2019-02-21T06:36:07.373Z,28.33
2019-02-21T06:38:33.908Z,28.57
2019-02-21T06:41:00.636Z,23.70
2019-02-21T06:43:26.877Z,28.20
2019-02-21T06:45:53.536Z,24.63
2019-02-21T06:48:20.153Z,26.20
2019-02-21T06:50:47.747Z,26.00
2019-02-21T06:53:14.013Z,24.13
2019-02-21T06:55:40.671Z,24.73
2019-02-21T06:58:06.883Z,24.40
2019-02-21T07:00:33.423Z,25.43
2019-02-21T07:02:59.965Z,26.00
2019-02-21T07:05:26.604Z,25.60
2019-02-21T07:07:53.241Z,25.53
2019-02-21T07:10:19.779Z,26.27
2019-02-21T07:12:46.015Z,27.30
2019-02-21T07:15:15.021Z,26.97
2019-02-21T07:17:48.935Z,30.17
2019-02-21T07:20:08.922Z,26.20
2019-02-21T07:22:35.146Z,28.43
2019-02-21T07:25:03.592Z,25.27
2019-02-21T07:27:29.831Z,28.33
2019-02-21T07:29:56.071Z,27.80
2019-02-21T07:32:42.483Z,26.07
2019-02-21T07:35:08.699Z,28.60
2019-02-21T07:37:34.954Z,30.17
2019-02-21T07:40:01.276Z,24.53
2019-02-21T07:42:27.520Z,24.93
2019-02-21T07:44:54.066Z,26.80
2019-02-21T07:47:20.367Z,29.50
2019-02-21T07:49:46.876Z,22.83
2019-02-21T07:52:13.420Z,23.97
2019-02-21T07:54:39.807Z,27.13
2019-02-21T07:57:08.484Z,24.97
2019-02-21T07:59:34.180Z,26.10
2019-02-21T08:02:00.407Z,23.70
2019-02-21T08:04:26.658Z,26.63
2019-02-21T08:06:55.487Z,25.03
2019-02-21T08:09:21.002Z,25.97
2019-02-21T08:11:47.330Z,31.03
2019-02-21T08:14:16.047Z,28.00
2019-02-21T08:16:41.620Z,26.10
2019-02-21T08:19:07.889Z,26.20
2019-02-21T08:21:34.308Z,25.87
2019-02-21T08:24:00.512Z,28.27
2019-02-21T08:26:26.786Z,25.00
2019-02-21T08:28:53.304Z,28.80
2019-02-21T08:31:19.583Z,32.00
2019-02-21T08:33:58.288Z,29.63
2019-02-21T08:36:21.655Z,26.43
2019-02-21T08:38:47.917Z,29.33
2019-02-21T08:41:14.716Z,27.70
2019-02-21T08:43:41.074Z,27.13
2019-02-21T08:46:07.750Z,28.07
2019-02-21T08:48:34.174Z,25.73
2019-02-21T08:51:00.418Z,27.47
2019-02-21T08:53:28.104Z,27.67
2019-02-21T08:55:55.983Z,27.57
2019-02-21T08:58:22.423Z,25.53
2019-02-21T09:00:49.620Z,28.50
2019-02-21T09:03:17.990Z,28.90
2019-02-21T09:05:43.956Z,29.77
2019-02-21T09:08:10.267Z,25.07
2019-02-21T09:10:36.561Z,26.13
2019-02-21T09:13:02.780Z,25.50
2019-02-21T09:15:29.357Z,27.00
2019-02-21T09:17:55.581Z,27.30
2019-02-21T09:20:21.940Z,28.10
2019-02-21T09:22:48.161Z,28.73
2019-02-21T09:25:14.416Z,31.00
2019-02-21T09:27:41.020Z,27.00
2019-02-21T09:30:10.827Z,26.90
2019-02-21T09:32:37.048Z,25.17
2019-02-21T09:35:04.213Z,25.93
2019-02-21T09:37:30.541Z,28.50
2019-02-21T09:39:56.771Z,26.13
2019-02-21T09:42:22.975Z,32.20
2019-02-21T09:44:49.892Z,25.23
2019-02-21T09:47:16.165Z,24.60
2019-02-21T09:49:42.415Z,29.83
2019-02-21T09:52:08.936Z,22.57
2019-02-21T09:54:35.203Z,25.10
2019-02-21T09:57:12.385Z,25.10
2019-02-21T09:59:29.780Z,27.23
2019-02-21T10:01:57.611Z,26.70
2019-02-21T10:04:31.896Z,27.03
2019-02-21T10:06:52.070Z,25.03
2019-02-21T10:09:18.387Z,24.60
2019-02-21T10:11:44.631Z,30.10
2019-02-21T10:14:10.879Z,26.27
2019-02-21T10:16:37.227Z,29.30
2019-02-21T10:19:03.483Z,30.27
2019-02-21T10:21:29.697Z,24.20
2019-02-21T10:23:56.745Z,30.63
2019-02-21T10:26:23.251Z,24.70
2019-02-21T10:28:49.859Z,28.13
2019-02-21T10:31:16.092Z,25.93
2019-02-21T10:33:46.831Z,28.00
2019-02-21T10:36:10.497Z,26.17
2019-02-21T10:38:36.747Z,27.37
2019-02-21T10:41:03.351Z,26.00
2019-02-21T10:43:29.987Z,23.37
2019-02-21T10:45:56.227Z,27.60
2019-02-21T10:48:22.467Z,25.33
2019-02-21T10:50:48.682Z,27.30
2019-02-21T10:53:14.921Z,28.40
2019-02-21T10:55:42.260Z,26.57
2019-02-21T10:58:09.083Z,24.23
2019-02-21T11:00:35.457Z,25.47
2019-02-21T11:03:01.704Z,26.00
2019-02-21T11:05:27.929Z,30.77
2019-02-21T11:07:54.382Z,27.90
2019-02-21T11:10:27.533Z,24.50
2019-02-21T11:12:54.177Z,24.70
2019-02-21T11:15:22.395Z,24.97
2019-02-21T11:17:48.631Z,28.73
2019-02-21T11:20:16.683Z,27.37
2019-02-21T11:22:42.925Z,27.17
2019-02-21T11:25:10.840Z,26.10
2019-02-21T11:27:37.176Z,29.90
2019-02-21T11:30:06.899Z,30.00
2019-02-21T11:32:33.143Z,30.37
2019-02-21T11:35:06.333Z,25.33
2019-02-21T11:37:27.409Z,28.47
2019-02-21T11:39:53.635Z,26.47
2019-02-21T11:42:20.165Z,28.73
2019-02-21T11:44:46.388Z,29.37
2019-02-21T11:47:12.650Z,28.30
2019-02-21T11:49:38.866Z,28.37
2019-02-21T11:52:10.206Z,31.60
2019-02-21T11:54:33.149Z,26.80
2019-02-21T11:56:59.417Z,30.30
2019-02-21T11:59:25.636Z,28.63
2019-02-21T12:01:51.871Z,25.27
2019-02-21T12:04:18.120Z,26.80
2019-02-21T12:06:44.398Z,29.70
2019-02-21T12:09:12.347Z,33.70
2019-02-21T12:11:38.700Z,29.83
2019-02-21T12:14:04.911Z,29.17
2019-02-21T12:16:31.184Z,27.10
2019-02-21T12:18:57.399Z,30.40
2019-02-21T12:21:23.643Z,28.67
2019-02-21T12:23:49.855Z,29.20
2019-02-21T12:26:16.476Z,29.80
2019-02-21T12:28:42.707Z,30.60
2019-02-21T12:31:08.923Z,31.47
2019-02-21T12:33:35.147Z,28.13
2019-02-21T12:36:01.501Z,27.47
2019-02-21T12:38:27.719Z,28.60
2019-02-21T12:40:54.780Z,28.30
2019-02-21T12:43:21.013Z,32.50
2019-02-21T12:45:47.298Z,31.73
2019-02-21T12:48:13.861Z,29.60
2019-02-21T12:50:44.255Z,27.43
2019-02-21T12:53:08.244Z,30.47
2019-02-21T12:55:34.516Z,27.83
2019-02-21T12:58:00.737Z,29.27
2019-02-21T13:00:27.033Z,29.07
2019-02-21T13:02:53.335Z,31.23
2019-02-21T13:05:19.523Z,31.50
2019-02-21T13:10:31.846Z,30.53
2019-02-21T13:12:58.075Z,29.30
2019-02-21T13:15:24.458Z,34.87
2019-02-21T13:17:51.189Z,28.63
2019-02-21T13:20:17.741Z,29.57
2019-02-21T13:22:44.348Z,31.83
2019-02-21T13:25:17.703Z,29.93
2019-02-21T13:27:43.956Z,30.50
2019-02-21T13:30:17.006Z,31.40
2019-02-21T13:32:43.874Z,32.83
2019-02-21T13:35:10.147Z,31.43
2019-02-21T13:37:36.358Z,28.90
2019-02-21T13:40:08.586Z,29.13
2019-02-21T13:42:34.816Z,30.90
2019-02-21T13:45:01.082Z,30.80
2019-02-21T13:47:27.695Z,28.70
2019-02-21T13:49:54.231Z,29.80
2019-02-21T13:52:20.475Z,33.00
2019-02-21T13:54:46.785Z,30.00
2019-02-21T13:57:13.091Z,30.30
2019-02-21T13:59:39.653Z,28.23
2019-02-21T14:02:05.866Z,31.17
2019-02-21T14:04:32.122Z,30.00
2019-02-21T14:06:58.648Z,32.97
2019-02-21T14:09:25.003Z,31.03
2019-02-21T14:11:51.289Z,32.03
2019-02-21T14:14:17.850Z,32.93
2019-02-21T14:16:46.808Z,28.63
2019-02-21T14:19:12.430Z,29.33
2019-02-21T14:21:38.712Z,28.83
2019-02-21T14:24:05.330Z,27.63
2019-02-21T14:26:31.865Z,31.47
2019-02-21T14:28:58.104Z,33.27
2019-02-21T14:31:24.328Z,30.17
2019-02-21T14:33:51.918Z,28.50
2019-02-21T14:36:19.376Z,34.77
2019-02-21T14:38:45.629Z,33.80
2019-02-21T14:41:11.895Z,32.53
2019-02-21T14:43:38.103Z,32.97
2019-02-21T14:46:04.351Z,36.17
2019-02-21T14:48:30.592Z,31.27
2019-02-21T14:50:56.933Z,33.87
2019-02-21T14:53:23.155Z,30.53
2019-02-21T14:55:49.452Z,35.77
2019-02-21T14:58:15.671Z,30.53
2019-02-21T15:00:41.924Z,34.27
2019-02-21T15:03:08.146Z,37.23
2019-02-21T15:05:34.387Z,35.90
2019-02-21T15:08:00.610Z,34.37
2019-02-21T15:10:26.856Z,31.80
2019-02-21T15:12:53.078Z,34.20
2019-02-21T15:15:24.428Z,32.53
2019-02-21T15:17:50.643Z,35.37
2019-02-21T15:20:16.890Z,29.83
2019-02-21T15:22:43.124Z,31.47
2019-02-21T15:25:09.517Z,31.47
2019-02-21T15:27:35.762Z,30.07
2019-02-21T15:30:04.205Z,31.70
2019-02-21T15:32:30.452Z,27.13
2019-02-21T15:34:56.686Z,26.03
2019-02-21T15:37:22.933Z,25.90
2019-02-21T15:39:49.149Z,24.63
2019-02-21T15:42:15.711Z,27.37
2019-02-21T15:44:41.942Z,26.27
2019-02-21T15:47:08.227Z,24.63
2019-02-21T15:49:34.815Z,22.83
2019-02-21T15:52:01.069Z,24.27
2019-02-21T15:54:27.698Z,24.37
2019-02-21T15:56:54.003Z,24.80
2019-02-21T15:59:20.255Z,26.37
2019-02-21T16:01:47.835Z,25.60
2019-02-21T16:04:14.223Z,22.83
2019-02-21T16:06:51.172Z,26.00
2019-02-21T16:09:16.251Z,25.50
2019-02-21T16:11:36.528Z,26.67
2019-02-21T16:14:03.716Z,28.20
2019-02-21T16:16:30.116Z,27.80
2019-02-21T16:18:58.672Z,29.27
2019-02-21T16:21:24.486Z,28.40
2019-02-21T16:23:51.043Z,29.43
2019-02-21T16:26:17.270Z,33.10
2019-02-21T16:28:43.540Z,32.50
2019-02-21T16:31:10.120Z,32.50
2019-02-21T16:33:36.368Z,30.93
2019-02-21T16:36:02.586Z,30.87
2019-02-21T16:38:28.944Z,32.80
2019-02-21T16:40:55.175Z,31.57
2019-02-21T16:43:21.777Z,28.93
2019-02-21T16:45:53.516Z,30.30
2019-02-21T16:48:16.084Z,28.73
2019-02-21T16:50:42.609Z,28.37
2019-02-21T16:53:08.854Z,31.57
2019-02-21T16:55:35.141Z,31.63
2019-02-21T16:58:01.710Z,28.50
2019-02-21T17:00:38.932Z,28.70
2019-02-21T17:02:55.980Z,24.33
2019-02-21T17:05:22.762Z,27.87
2019-02-21T17:07:49.412Z,25.20
2019-02-21T17:10:16.072Z,25.60
2019-02-21T17:12:42.263Z,22.37
2019-02-21T17:15:13.937Z,25.10
2019-02-21T17:17:40.351Z,22.10
2019-02-21T17:20:10.071Z,22.07
2019-02-21T17:22:36.267Z,22.13
2019-02-21T17:25:03.889Z,23.50
2019-02-21T17:27:30.248Z,19.33
2019-02-21T17:29:59.169Z,21.90
2019-02-21T17:32:44.736Z,21.43
2019-02-21T17:35:10.947Z,20.73
2019-02-21T17:37:37.196Z,21.10
2019-02-21T17:40:09.907Z,17.23
2019-02-21T17:42:36.265Z,21.10
2019-02-21T17:45:03.404Z,18.67
2019-02-21T17:47:32.485Z,17.07
2019-02-21T17:49:58.041Z,16.00
2019-02-21T17:52:24.302Z,29.23
2019-02-21T17:54:50.552Z,15.90
2019-02-21T17:57:17.181Z,14.03
2019-02-21T17:59:43.400Z,13.60
2019-02-21T18:02:09.766Z,15.17
2019-02-21T18:04:36.295Z,13.90
2019-02-21T18:07:03.125Z,15.00
2019-02-21T18:09:29.357Z,16.10
2019-02-21T18:11:55.600Z,14.87
2019-02-21T18:14:21.831Z,16.00
2019-02-21T18:16:48.043Z,15.93
2019-02-21T18:19:14.283Z,13.17
2019-02-21T18:21:40.785Z,13.27
2019-02-21T18:24:07.031Z,15.37
2019-02-21T18:26:33.267Z,13.77
2019-02-21T18:28:59.515Z,13.90
2019-02-21T18:31:25.735Z,15.13
2019-02-21T18:33:54.506Z,14.23
2019-02-21T18:36:21.424Z,12.80
2019-02-21T18:38:47.803Z,12.83
2019-02-21T18:41:14.027Z,13.87
2019-02-21T18:43:40.282Z,13.67
2019-02-21T18:46:06.524Z,14.37
2019-02-21T18:48:32.751Z,14.47
2019-02-21T18:50:59.005Z,13.07
2019-02-21T18:53:25.224Z,12.03
2019-02-21T18:55:52.098Z,14.10
2019-02-21T18:58:18.344Z,11.60
2019-02-21T19:00:44.587Z,12.57
2019-02-21T19:03:10.823Z,14.70
2019-02-21T19:05:37.193Z,12.47
2019-02-21T19:08:05.474Z,14.17
2019-02-21T19:10:31.926Z,12.13
2019-02-21T19:12:58.150Z,12.60
2019-02-21T19:15:26.208Z,13.17
2019-02-21T19:17:52.433Z,11.67
2019-02-21T19:20:20.425Z,11.47
2019-02-21T19:22:46.811Z,13.97
2019-02-21T19:25:13.369Z,12.30
2019-02-21T19:27:39.708Z,13.33
2019-02-21T19:30:27.973Z,12.17
2019-02-21T19:32:54.719Z,12.13
2019-02-21T19:35:21.545Z,12.10
2019-02-21T19:37:47.785Z,14.30
2019-02-21T19:40:14.536Z,12.10
2019-02-21T19:42:40.869Z,12.13
2019-02-21T19:45:07.915Z,13.07
2019-02-21T19:47:34.231Z,15.97
2019-02-21T19:50:00.572Z,13.30
2019-02-21T19:52:27.203Z,13.73
2019-02-21T19:54:53.419Z,14.33
2019-02-21T19:57:19.686Z,17.17
2019-02-21T19:59:46.644Z,18.17
2019-02-21T20:02:13.003Z,16.37
2019-02-21T20:04:39.231Z,14.70
2019-02-21T20:07:05.797Z,18.80
2019-02-21T20:09:32.048Z,17.93
2019-02-21T20:11:59.344Z,18.07
2019-02-21T20:14:25.687Z,21.47
2019-02-21T20:16:51.988Z,18.73
2019-02-21T20:19:18.227Z,21.37
2019-02-21T20:21:44.454Z,21.47
2019-02-21T20:24:11.053Z,23.50
2019-02-21T20:26:37.379Z,18.00
2019-02-21T20:29:04.009Z,19.00
2019-02-21T20:31:30.231Z,19.27
2019-02-21T20:33:56.970Z,26.20
2019-02-21T20:36:23.866Z,21.20
2019-02-21T20:38:50.245Z,22.60
2019-02-21T20:41:16.543Z,24.17
2019-02-21T20:43:51.912Z,25.90
2019-02-21T20:46:18.215Z,24.10
2019-02-21T20:48:44.550Z,27.30
2019-02-21T20:51:10.934Z,23.77
2019-02-21T20:53:37.307Z,24.83
2019-02-21T20:56:06.100Z,27.10
2019-02-21T20:58:31.952Z,28.03
2019-02-21T21:00:58.316Z,32.33
2019-02-21T21:03:24.614Z,30.63
2019-02-21T21:05:51.305Z,30.90
2019-02-21T21:08:42.947Z,31.90
2019-02-21T21:11:06.128Z,31.50
2019-02-21T21:13:32.442Z,32.10
2019-02-21T21:15:58.787Z,30.50
2019-02-21T21:18:25.176Z,32.67
2019-02-21T21:20:51.496Z,36.57
2019-02-21T21:23:18.032Z,38.33
2019-02-21T21:25:44.837Z,41.77
2019-02-21T21:28:12.318Z,39.00
2019-02-21T21:30:38.734Z,32.13
2019-02-21T21:33:05.096Z,39.53
2019-02-21T21:35:31.957Z,38.00
2019-02-21T21:37:58.383Z,36.87
2019-02-21T21:40:25.025Z,38.20
2019-02-21T21:42:51.523Z,34.20
2019-02-21T21:45:18.727Z,32.40
2019-02-21T21:47:45.180Z,33.63
2019-02-21T21:50:14.158Z,34.17
2019-02-21T21:52:40.457Z,36.20
2019-02-21T21:55:07.081Z,32.60
2019-02-21T21:57:33.435Z,27.13
2019-02-21T22:00:10.581Z,34.80
2019-02-21T22:02:37.039Z,31.53
2019-02-21T22:05:06.650Z,29.70
2019-02-21T22:07:32.930Z,32.83
2019-02-21T22:09:59.218Z,32.13
2019-02-21T22:12:25.559Z,33.77
2019-02-21T22:14:51.816Z,34.03
2019-02-21T22:17:18.331Z,36.10
2019-02-21T22:19:44.601Z,33.83
2019-02-21T22:22:11.212Z,39.60
2019-02-21T22:24:37.525Z,35.70
2019-02-21T22:27:03.837Z,39.30
2019-02-21T22:29:30.295Z,38.03
2019-02-21T22:31:56.694Z,38.40
2019-02-21T22:34:23.366Z,42.33
2019-02-21T22:36:50.801Z,40.97
2019-02-21T22:39:17.177Z,39.80
2019-02-21T22:41:43.474Z,36.43
2019-02-21T22:44:09.971Z,36.30
2019-02-21T22:46:36.454Z,40.43
2019-02-21T22:49:02.760Z,38.77
2019-02-21T22:51:29.612Z,44.63
2019-02-21T22:53:55.874Z,40.23
2019-02-21T22:56:24.409Z,41.37
2019-02-21T22:58:51.026Z,38.20
2019-02-21T23:01:22.188Z,33.70
2019-02-21T23:03:51.826Z,34.30
2019-02-21T23:06:35.793Z,39.47
2019-02-21T23:09:03.649Z,37.63
2019-02-21T23:11:30.638Z,37.43
2019-02-21T23:13:59.834Z,35.73
2019-02-21T23:16:26.488Z,41.03
2019-02-21T23:18:53.393Z,33.00
2019-02-21T23:21:21.477Z,41.43
2019-02-21T23:23:47.908Z,35.40
2019-02-21T23:26:14.252Z,41.80
2019-02-21T23:28:40.787Z,38.30
2019-02-21T23:31:26.932Z,41.53
2019-02-21T23:33:55.062Z,41.97
2019-02-21T23:36:21.655Z,38.90
2019-02-21T23:38:47.873Z,43.80
2019-02-21T23:41:14.424Z,45.43
2019-02-21T23:43:40.958Z,44.20
2019-02-21T23:46:07.484Z,41.73
2019-02-21T23:48:34.028Z,45.87
2019-02-21T23:51:00.232Z,43.30
2019-02-21T23:53:26.477Z,44.73
2019-02-21T23:55:52.766Z,44.77
2019-02-21T23:58:18.955Z,41.60
